createdAt,value
2017-10-10T04:00:15.363Z,3.67
2017-10-10T04:02:42.935Z,3.80
2017-10-10T04:05:11.280Z,3.13
2017-10-10T04:07:38.812Z,3.40
2017-10-10T04:10:07.139Z,4.10
2017-10-10T04:12:35.456Z,4.60
2017-10-10T04:15:03.010Z,4.00
2017-10-10T04:17:30.550Z,4.90
2017-10-10T04:19:58.120Z,4.90
2017-10-10T04:22:25.951Z,4.87
2017-10-10T04:24:53.505Z,4.70
2017-10-10T04:27:21.850Z,4.23
2017-10-10T04:29:49.368Z,4.00
2017-10-10T04:32:16.929Z,5.13
2017-10-10T04:34:44.445Z,5.93
2017-10-10T04:37:12.009Z,5.33
2017-10-10T04:39:40.343Z,5.77
2017-10-10T04:42:07.876Z,6.20
2017-10-10T04:44:35.430Z,5.80
2017-10-10T04:47:02.994Z,5.23
2017-10-10T04:49:30.522Z,5.37
2017-10-10T04:51:58.040Z,5.00
2017-10-10T04:54:25.632Z,5.30
2017-10-10T04:56:53.919Z,6.17
2017-10-10T04:59:22.665Z,5.67
2017-10-10T05:01:50.240Z,5.80
2017-10-10T05:04:17.825Z,5.60
2017-10-10T05:06:46.119Z,5.70
2017-10-10T05:09:13.631Z,6.57
2017-10-10T05:11:41.184Z,6.23
2017-10-10T05:14:08.707Z,6.90
2017-10-10T05:16:36.253Z,7.63
2017-10-10T05:19:03.800Z,7.77
2017-10-10T05:21:32.172Z,8.13
2017-10-10T05:23:59.726Z,7.70
2017-10-10T05:26:28.005Z,7.60
2017-10-10T05:28:55.573Z,7.70
2017-10-10T05:31:23.128Z,6.90
2017-10-10T05:33:50.709Z,7.63
2017-10-10T05:36:18.293Z,7.77
2017-10-10T05:38:46.822Z,7.70
2017-10-10T05:41:14.402Z,8.00
2017-10-10T05:43:41.937Z,7.60
2017-10-10T05:46:09.511Z,7.73
2017-10-10T05:48:37.019Z,6.77
2017-10-10T05:51:04.565Z,6.13
2017-10-10T05:53:32.185Z,6.53
2017-10-10T05:55:59.714Z,6.30
2017-10-10T05:58:27.239Z,7.83
2017-10-10T06:00:55.037Z,6.30
2017-10-10T06:03:23.325Z,8.20
2017-10-10T06:05:50.902Z,8.10
2017-10-10T06:08:18.425Z,7.50
2017-10-10T06:10:46.728Z,7.90
2017-10-10T06:13:14.296Z,7.70
2017-10-10T06:15:41.833Z,8.43
2017-10-10T06:18:10.165Z,8.57
2017-10-10T06:20:37.712Z,8.53
2017-10-10T06:23:05.236Z,8.67
2017-10-10T06:25:32.817Z,9.47
2017-10-10T06:28:00.337Z,8.40
2017-10-10T06:30:28.615Z,7.83
2017-10-10T06:32:56.176Z,9.47
2017-10-10T06:35:23.820Z,8.73
2017-10-10T06:37:52.167Z,8.30
2017-10-10T06:40:19.752Z,8.77
2017-10-10T06:42:48.086Z,9.47
2017-10-10T06:45:15.694Z,8.20
2017-10-10T06:47:43.251Z,10.13
2017-10-10T06:50:11.596Z,9.20
2017-10-10T06:52:39.175Z,10.13
2017-10-10T06:55:06.716Z,8.87
2017-10-10T06:57:34.352Z,9.70
2017-10-10T07:00:01.937Z,9.83
2017-10-10T07:02:29.522Z,10.67
2017-10-10T07:04:57.893Z,13.00
2017-10-10T07:07:26.241Z,12.43
2017-10-10T07:09:53.824Z,11.40
2017-10-10T07:12:21.369Z,11.40
2017-10-10T07:14:48.969Z,11.00
2017-10-10T07:17:16.546Z,10.17
2017-10-10T07:19:44.112Z,10.27
2017-10-10T07:22:11.721Z,10.17
2017-10-10T07:24:40.032Z,9.37
2017-10-10T07:27:07.578Z,9.90
2017-10-10T07:29:35.223Z,10.13
2017-10-10T07:32:03.563Z,10.43
2017-10-10T07:34:31.175Z,8.70
2017-10-10T07:36:58.713Z,8.80
2017-10-10T07:39:27.007Z,7.30
2017-10-10T07:41:54.588Z,8.20
2017-10-10T07:44:22.141Z,8.50
2017-10-10T07:46:49.701Z,7.30
2017-10-10T07:49:17.214Z,8.50
2017-10-10T07:51:44.789Z,7.87
2017-10-10T07:54:13.088Z,7.63
2017-10-10T07:56:40.666Z,8.13
2017-10-10T07:59:08.223Z,7.23
2017-10-10T08:01:35.781Z,6.17
2017-10-10T08:04:03.358Z,6.90
2017-10-10T08:06:30.926Z,7.00
2017-10-10T08:08:58.556Z,5.83
2017-10-10T08:11:26.120Z,6.17
2017-10-10T08:13:54.467Z,7.40
2017-10-10T08:16:22.013Z,8.60
2017-10-10T08:18:49.678Z,7.30
2017-10-10T08:21:17.284Z,6.80
2017-10-10T08:23:44.923Z,5.60
2017-10-10T08:26:12.501Z,5.90
2017-10-10T08:28:40.043Z,5.93
2017-10-10T08:31:07.689Z,6.30
2017-10-10T08:33:35.328Z,5.33
2017-10-10T08:36:02.924Z,5.63
2017-10-10T08:38:30.497Z,4.80
2017-10-10T08:40:58.060Z,5.00
2017-10-10T08:43:25.627Z,4.90
2017-10-10T08:45:53.187Z,5.63
2017-10-10T08:48:20.791Z,5.00
2017-10-10T08:50:48.322Z,6.53
2017-10-10T08:53:15.849Z,4.30
2017-10-10T08:55:43.408Z,4.80
2017-10-10T08:58:10.957Z,4.37
2017-10-10T09:00:38.521Z,4.80
2017-10-10T09:03:06.089Z,4.83
2017-10-10T09:05:34.220Z,4.80
2017-10-10T09:08:01.740Z,4.63
2017-10-10T09:10:29.275Z,5.03
2017-10-10T09:12:56.832Z,4.33
2017-10-10T09:15:24.381Z,3.50
2017-10-10T09:17:51.945Z,3.80
2017-10-10T09:20:19.875Z,3.50
2017-10-10T09:22:47.428Z,3.10
2017-10-10T09:25:14.946Z,4.33
2017-10-10T09:27:42.502Z,3.30
2017-10-10T09:30:10.068Z,3.80
2017-10-10T09:32:37.593Z,3.83
2017-10-10T09:35:05.149Z,3.47
2017-10-10T09:37:32.716Z,3.37
2017-10-10T09:40:00.248Z,3.50
2017-10-10T09:42:27.782Z,3.40
2017-10-10T09:44:55.344Z,3.00
2017-10-10T09:47:22.872Z,3.60
2017-10-10T09:49:50.406Z,4.37
2017-10-10T09:52:17.977Z,4.20
2017-10-10T09:54:45.521Z,4.40
2017-10-10T09:57:13.096Z,4.70
2017-10-10T09:59:40.608Z,3.40
2017-10-10T10:02:08.170Z,3.33
2017-10-10T10:04:35.680Z,3.53
2017-10-10T10:07:03.213Z,3.07
2017-10-10T10:09:30.772Z,2.90
2017-10-10T10:11:59.085Z,3.37
2017-10-10T10:14:27.393Z,2.40
2017-10-10T10:16:54.935Z,2.97
2017-10-10T10:19:22.485Z,2.50
2017-10-10T10:21:50.044Z,2.97
2017-10-10T10:24:18.341Z,2.80
2017-10-10T10:26:45.917Z,2.97
2017-10-10T10:29:13.444Z,3.00
2017-10-10T10:31:40.989Z,2.90
2017-10-10T10:34:09.313Z,2.90
2017-10-10T10:36:36.832Z,2.87
2017-10-10T10:39:04.395Z,3.17
2017-10-10T10:41:31.916Z,2.50
2017-10-10T10:43:59.433Z,2.80
2017-10-10T10:46:26.982Z,3.37
2017-10-10T10:48:54.513Z,3.10
2017-10-10T10:51:22.805Z,3.23
2017-10-10T10:53:51.112Z,2.60
2017-10-10T10:56:18.649Z,2.63
2017-10-10T10:58:46.206Z,2.80
2017-10-10T11:01:13.769Z,2.90
2017-10-10T11:03:41.284Z,3.13
2017-10-10T11:06:09.707Z,2.97
2017-10-10T11:08:37.228Z,3.00
2017-10-10T11:11:04.772Z,2.63
2017-10-10T11:13:32.325Z,2.87
2017-10-10T11:15:59.862Z,3.27
2017-10-10T11:18:27.423Z,2.70
2017-10-10T11:20:54.936Z,2.80
2017-10-10T11:23:22.480Z,2.63
2017-10-10T11:25:50.106Z,2.77
2017-10-10T11:28:17.591Z,2.40
2017-10-10T11:30:45.911Z,2.83
2017-10-10T11:33:13.438Z,2.90
2017-10-10T11:35:41.934Z,2.50
2017-10-10T11:38:09.504Z,3.53
2017-10-10T11:40:37.429Z,3.13
2017-10-10T11:43:05.712Z,3.20
2017-10-10T11:45:34.033Z,3.27
2017-10-10T11:48:01.549Z,3.20
2017-10-10T11:50:29.105Z,3.03
2017-10-10T11:52:57.398Z,2.93
2017-10-10T11:55:24.943Z,2.70
2017-10-10T11:57:52.504Z,2.57
2017-10-10T12:00:20.036Z,2.70
2017-10-10T12:02:48.364Z,2.47
2017-10-10T12:05:15.932Z,2.70
2017-10-10T12:07:43.501Z,2.40
2017-10-10T12:10:11.061Z,2.70
2017-10-10T12:12:38.606Z,2.83
2017-10-10T12:15:06.138Z,2.30
2017-10-10T12:17:33.686Z,2.60
2017-10-10T12:20:01.248Z,2.87
2017-10-10T12:22:28.784Z,2.70
2017-10-10T12:24:56.315Z,2.57
2017-10-10T12:27:23.880Z,3.10
2017-10-10T12:29:51.409Z,3.23
2017-10-10T12:32:18.943Z,2.40
2017-10-10T12:34:46.493Z,2.40
2017-10-10T12:37:14.029Z,2.70
2017-10-10T12:39:42.390Z,2.80
2017-10-10T12:42:10.687Z,2.93
2017-10-10T12:44:38.245Z,2.10
2017-10-10T12:47:06.531Z,2.30
2017-10-10T12:49:34.103Z,2.30
2017-10-10T12:52:01.634Z,2.30
2017-10-10T12:54:29.931Z,2.80
2017-10-10T12:56:57.480Z,2.27
2017-10-10T12:59:25.043Z,2.60
2017-10-10T13:01:52.577Z,2.57
2017-10-10T13:04:20.905Z,2.60
2017-10-10T13:06:48.472Z,2.10
2017-10-10T13:09:16.000Z,1.93
2017-10-10T13:11:43.533Z,2.43
2017-10-10T13:14:11.868Z,2.23
2017-10-10T13:16:39.418Z,3.07
2017-10-10T13:19:06.983Z,2.17
2017-10-10T13:21:34.509Z,2.20
2017-10-10T13:24:02.079Z,2.33
2017-10-10T13:26:29.639Z,2.47
2017-10-10T13:28:57.208Z,2.80
2017-10-10T13:31:24.741Z,2.03
2017-10-10T13:33:52.271Z,2.60
2017-10-10T13:36:20.601Z,2.70
2017-10-10T13:38:48.188Z,2.70
2017-10-10T13:41:15.753Z,2.20
2017-10-10T13:43:44.124Z,3.07
2017-10-10T13:46:12.492Z,2.50
2017-10-10T13:48:40.076Z,2.30
2017-10-10T13:51:08.389Z,2.50
2017-10-10T13:53:35.921Z,2.23
2017-10-10T13:56:03.460Z,2.27
2017-10-10T13:58:31.040Z,2.87
2017-10-10T14:00:58.603Z,2.30
2017-10-10T14:03:26.151Z,2.27
2017-10-10T14:05:53.694Z,2.50
2017-10-10T14:08:22.036Z,2.50
2017-10-10T14:10:49.625Z,2.60
2017-10-10T14:13:17.936Z,2.50
2017-10-10T14:15:45.448Z,2.37
2017-10-10T14:18:13.470Z,2.30
2017-10-10T14:20:41.008Z,2.50
2017-10-10T14:23:08.568Z,2.30
2017-10-10T14:25:36.095Z,2.10
2017-10-10T14:28:03.641Z,1.90
2017-10-10T14:30:31.203Z,2.10
2017-10-10T14:32:58.745Z,2.27
2017-10-10T14:35:26.320Z,2.50
2017-10-10T14:37:53.838Z,2.20
2017-10-10T14:40:21.356Z,2.17
2017-10-10T14:42:49.700Z,2.40
2017-10-10T14:45:17.211Z,3.00
2017-10-10T14:47:44.749Z,2.70
2017-10-10T14:50:13.185Z,2.00
2017-10-10T14:52:40.707Z,2.07
2017-10-10T14:55:08.232Z,2.77
2017-10-10T14:57:36.576Z,2.33
2017-10-10T15:00:04.127Z,2.30
2017-10-10T15:02:31.684Z,2.50
2017-10-10T15:04:59.213Z,2.10
2017-10-10T15:07:26.753Z,2.70
2017-10-10T15:09:54.310Z,1.90
2017-10-10T15:12:22.632Z,2.40
2017-10-10T15:14:50.154Z,2.30
2017-10-10T15:17:17.715Z,2.57
2017-10-10T15:19:45.243Z,2.20
2017-10-10T15:22:12.811Z,2.83
2017-10-10T15:24:41.107Z,3.37
2017-10-10T15:27:08.730Z,2.53
2017-10-10T15:29:36.269Z,2.40
2017-10-10T15:32:03.869Z,2.07
2017-10-10T15:34:31.400Z,2.83
2017-10-10T15:36:59.281Z,2.60
2017-10-10T15:39:27.586Z,2.20
2017-10-10T15:41:55.148Z,2.37
2017-10-10T15:44:22.678Z,1.97
2017-10-10T15:46:51.028Z,2.60
2017-10-10T15:49:19.062Z,2.30
2017-10-10T15:51:46.689Z,2.30
2017-10-10T15:54:15.032Z,2.70
2017-10-10T15:56:42.547Z,2.83
2017-10-10T15:59:10.107Z,2.23
2017-10-10T16:01:37.654Z,2.47
2017-10-10T16:04:05.227Z,2.60
2017-10-10T16:06:32.773Z,2.30
2017-10-10T16:09:00.301Z,2.50
2017-10-10T16:11:28.636Z,2.33
2017-10-10T16:13:56.171Z,2.37
2017-10-10T16:16:23.744Z,2.60
2017-10-10T16:18:51.342Z,2.60
2017-10-10T16:21:19.677Z,2.80
2017-10-10T16:23:47.278Z,3.80
2017-10-10T16:26:14.861Z,3.97
2017-10-10T16:28:42.419Z,3.80
2017-10-10T16:31:10.054Z,3.10
2017-10-10T16:33:37.649Z,3.53
2017-10-10T16:36:05.275Z,2.90
2017-10-10T16:38:32.892Z,3.33
2017-10-10T16:41:00.513Z,3.37
2017-10-10T16:43:28.999Z,2.80
2017-10-10T16:45:56.636Z,2.67
2017-10-10T16:48:24.993Z,4.23
2017-10-10T16:50:52.663Z,3.73
2017-10-10T16:53:20.364Z,3.60
2017-10-10T16:55:48.022Z,2.93
2017-10-10T16:58:15.681Z,2.83
2017-10-10T17:00:43.317Z,2.50
2017-10-10T17:03:11.721Z,2.90
2017-10-10T17:05:39.377Z,2.80
2017-10-10T17:08:06.986Z,3.17
2017-10-10T17:10:34.718Z,2.50
2017-10-10T17:13:02.392Z,2.70
2017-10-10T17:15:30.104Z,2.97
2017-10-10T17:17:57.760Z,2.60
2017-10-10T17:20:25.378Z,3.80
2017-10-10T17:22:52.978Z,2.77
2017-10-10T17:25:20.610Z,2.60
2017-10-10T17:27:48.286Z,3.63
2017-10-10T17:30:15.897Z,3.37
2017-10-10T17:32:43.456Z,3.40
2017-10-10T17:35:11.107Z,2.97
2017-10-10T17:37:38.734Z,3.13
2017-10-10T17:40:06.933Z,3.20
2017-10-10T17:42:34.574Z,2.90
2017-10-10T17:45:02.269Z,3.20
2017-10-10T17:47:29.915Z,3.30
2017-10-10T17:49:57.627Z,3.70
2017-10-10T17:52:25.220Z,3.27
2017-10-10T17:54:52.970Z,4.30
2017-10-10T17:57:20.597Z,4.07
2017-10-10T17:59:48.506Z,3.70
2017-10-10T18:02:16.254Z,4.00
2017-10-10T18:04:44.190Z,3.80
2017-10-10T18:07:11.900Z,3.27
2017-10-10T18:09:39.637Z,3.60
2017-10-10T18:12:07.493Z,3.77
2017-10-10T18:14:35.210Z,3.37
2017-10-10T18:17:03.049Z,3.63
2017-10-10T18:19:31.993Z,5.80
2017-10-10T18:21:59.864Z,5.87
2017-10-10T18:24:27.752Z,4.90
2017-10-10T18:26:59.682Z,4.90
2017-10-10T18:29:28.587Z,5.37
2017-10-10T18:31:56.343Z,4.50
2017-10-10T18:34:24.121Z,5.13
2017-10-10T18:36:52.080Z,4.60
2017-10-10T18:39:21.281Z,5.07
2017-10-10T18:41:49.102Z,4.30
2017-10-10T18:44:16.804Z,5.70
2017-10-10T18:46:44.753Z,5.70
2017-10-10T18:49:12.998Z,5.50
2017-10-10T18:51:40.940Z,4.90
2017-10-10T18:54:08.890Z,6.07
2017-10-10T18:56:36.967Z,6.07
2017-10-10T18:59:05.042Z,5.27
2017-10-10T19:01:34.156Z,6.20
2017-10-10T19:04:02.023Z,6.67
2017-10-10T19:06:32.074Z,6.90
2017-10-10T19:09:00.897Z,6.03
2017-10-10T19:11:28.929Z,6.63
2017-10-10T19:13:59.681Z,6.50
2017-10-10T19:16:34.918Z,8.07
2017-10-10T19:19:03.728Z,7.00
2017-10-10T19:21:32.298Z,6.10
2017-10-10T19:24:00.093Z,5.77
2017-10-10T19:26:27.968Z,6.20
2017-10-10T19:28:56.045Z,6.77
2017-10-10T19:31:24.021Z,7.20
2017-10-10T19:33:51.848Z,7.47
2017-10-10T19:36:19.578Z,6.83
2017-10-10T19:38:47.608Z,7.20
2017-10-10T19:41:15.321Z,6.33
2017-10-10T19:43:43.140Z,7.10
2017-10-10T19:46:11.111Z,7.13
2017-10-10T19:48:38.919Z,7.10
2017-10-10T19:51:06.691Z,7.70
2017-10-10T19:53:34.460Z,7.37
2017-10-10T19:56:03.198Z,7.80
2017-10-10T19:58:31.178Z,7.20
2017-10-10T20:00:59.919Z,7.00
2017-10-10T20:03:32.782Z,7.10
2017-10-10T20:06:06.508Z,7.10
2017-10-10T20:08:37.678Z,5.90
2017-10-10T20:11:07.093Z,6.10
2017-10-10T20:13:37.919Z,6.13
2017-10-10T20:16:10.331Z,5.70
2017-10-10T20:18:38.279Z,7.43
2017-10-10T20:21:06.295Z,6.60
2017-10-10T20:23:34.178Z,6.87
2017-10-10T20:26:01.928Z,7.70
2017-10-10T20:28:29.707Z,7.43
2017-10-10T20:31:00.498Z,7.57
2017-10-10T20:36:12.486Z,7.50
2017-10-10T20:38:45.124Z,8.30
2017-10-10T20:41:13.045Z,8.43
2017-10-10T20:43:41.188Z,9.33
2017-10-10T20:46:13.639Z,8.47
2017-10-10T20:48:42.696Z,9.00
2017-10-10T20:51:13.044Z,8.40
2017-10-10T20:53:50.732Z,9.40
2017-10-10T20:56:21.526Z,8.70
2017-10-10T21:01:58.654Z,7.70
2017-10-10T21:04:26.367Z,7.43
2017-10-10T21:06:53.900Z,7.90
2017-10-10T21:09:21.541Z,8.10
2017-10-10T21:11:49.268Z,8.57
2017-10-10T21:14:17.569Z,7.83
2017-10-10T21:16:45.129Z,7.30
2017-10-10T21:19:12.786Z,8.10
2017-10-10T21:21:40.485Z,8.27
2017-10-10T21:24:08.023Z,8.20
2017-10-10T21:26:35.595Z,8.50
2017-10-10T21:29:03.123Z,8.00
2017-10-10T21:31:31.477Z,7.83
2017-10-10T21:33:59.025Z,7.60
2017-10-10T21:36:26.610Z,7.63
2017-10-10T21:38:54.170Z,7.37
2017-10-10T21:41:21.716Z,8.37
2017-10-10T21:43:49.466Z,7.87
2017-10-10T21:46:17.000Z,7.40
2017-10-10T21:48:44.678Z,7.13
2017-10-10T21:51:12.200Z,8.20
2017-10-10T21:53:40.788Z,7.00
